Time;durP1;ratioP1;P1;durP2;ratioP2;P2;SDS_P1;SDS_P2;PMS_P1;PMS_P2;Temp;Humidity;BMP_temperature;BMP_pressure;BME280_temperature;BME280_humidity;BME280_pressure;Samples;Min_cycle;Max_cycle;Signal;HPM_P1;HPM_P2
2023/05/25 00:00:18;;;;;;;18.63;13.13;;;;;;;9.09;82.87;101924.44;847898;23;1144;-79
2023/05/25 00:00:39;;;;;;;19.20;13.45;;;;;;;9.08;83.31;101921.75;843692;23;1434;-79
2023/05/25 00:00:59;;;;;;;19.75;13.35;;;;;;;9.04;83.25;101918.97;843160;23;1168;-79
2023/05/25 00:01:20;;;;;;;22.38;13.40;;;;;;;9.03;83.25;101918.91;843571;23;1264;-80
2023/05/25 00:01:42;;;;;;;22.30;13.38;;;;;;;9.09;83.29;101934.84;841001;23;1032;-78
2023/05/25 00:02:03;;;;;;;22.15;13.25;;;;;;;9.05;83.37;101919.88;837500;23;1149;-79
2023/05/25 00:02:25;;;;;;;22.40;13.32;;;;;;;9.03;82.99;101922.41;837412;23;823;-79
2023/05/25 00:02:46;;;;;;;22.50;12.95;;;;;;;9.00;83.25;101918.75;835673;23;1365;-79
2023/05/25 00:03:08;;;;;;;21.80;12.95;;;;;;;8.95;82.82;101910.69;839520;23;1451;-79
2023/05/25 00:03:30;;;;;;;20.65;13.10;;;;;;;9.02;83.39;101933.63;839893;23;1284;-79
2023/05/25 00:03:54;;;;;;;20.55;13.38;;;;;;;8.94;83.20;101921.91;841310;23;1046;-79
2023/05/25 00:04:15;;;;;;;18.90;13.32;;;;;;;8.94;83.08;101924.53;841462;23;906;-79
2023/05/25 00:04:37;;;;;;;19.10;13.50;;;;;;;8.91;82.91;101920.03;845123;23;997;-80
2023/05/25 00:04:59;;;;;;;19.73;13.35;;;;;;;8.86;82.95;101915.41;838007;23;1473;-78
2023/05/25 00:05:20;;;;;;;19.20;13.02;;;;;;;8.81;83.09;101912.56;841514;23;1157;-79
2023/05/25 00:05:41;;;;;;;18.15;13.00;;;;;;;8.80;83.19;101915.97;839782;23;1316;-78
2023/05/25 00:06:02;;;;;;;18.47;13.47;;;;;;;8.79;82.93;101915.88;843955;23;1204;-79
2023/05/25 00:06:25;;;;;;;19.23;14.07;;;;;;;8.85;83.14;101930.13;836022;23;1134;-78
2023/05/25 00:06:46;;;;;;;21.95;14.70;;;;;;;8.77;83.23;101916.72;835156;23;1075;-79
2023/05/25 00:07:06;;;;;;;22.15;14.43;;;;;;;8.81;83.19;101925.56;839930;23;1344;-79
2023/05/25 00:07:27;;;;;;;22.38;14.25;;;;;;;8.75;83.39;101918.34;841453;23;777;-79
2023/05/25 00:07:48;;;;;;;22.70;13.70;;;;;;;8.77;83.47;101927.13;841085;23;1068;-78
2023/05/25 00:08:09;;;;;;;23.23;13.35;;;;;;;8.71;83.25;101911.16;835525;23;1355;-79
2023/05/25 00:08:29;;;;;;;24.33;13.53;;;;;;;8.70;83.53;101919.78;835891;23;1241;-79
2023/05/25 00:08:54;;;;;;;22.30;13.27;;;;;;;8.70;83.29;101916.28;835730;23;1114;-79
2023/05/25 00:09:15;;;;;;;19.73;13.20;;;;;;;8.74;83.43;101932.13;835819;23;1941;-79
2023/05/25 00:09:36;;;;;;;17.70;13.10;;;;;;;8.63;83.23;101917.66;837094;23;1010;-79
2023/05/25 00:09:56;;;;;;;17.83;13.20;;;;;;;8.72;83.55;101933.78;843145;23;1168;-79
2023/05/25 00:10:17;;;;;;;17.93;13.10;;;;;;;8.64;83.65;101919.44;839976;23;1150;-79
2023/05/25 00:10:38;;;;;;;18.70;13.38;;;;;;;8.62;83.31;101923.69;839134;23;1317;-79
2023/05/25 00:10:58;;;;;;;19.05;13.52;;;;;;;8.60;83.42;101920.94;841495;23;795;-78
2023/05/25 00:11:22;;;;;;;19.47;14.07;;;;;;;8.70;83.28;101937.09;841497;23;1087;-79
2023/05/25 00:11:43;;;;;;;18.48;13.20;;;;;;;8.58;83.29;101929.47;842952;23;1333;-80
2023/05/25 00:12:05;;;;;;;23.95;14.10;;;;;;;8.61;83.53;101922.75;844034;23;1345;-79
2023/05/25 00:12:26;;;;;;;25.20;14.30;;;;;;;8.61;83.73;101925.34;839914;23;1173;-80
2023/05/25 00:12:47;;;;;;;26.70;14.53;;;;;;;8.63;83.52;101938.47;840993;23;975;-80
2023/05/25 00:13:09;;;;;;;21.35;13.63;;;;;;;8.60;83.47;101917.47;839622;23;1300;-79
2023/05/25 00:13:29;;;;;;;20.98;13.63;;;;;;;8.59;83.45;101923.47;839939;23;1231;-79
2023/05/25 00:13:51;;;;;;;19.77;13.63;;;;;;;8.54;83.65;101915.41;835808;23;1126;-79
2023/05/25 00:14:12;;;;;;;21.10;13.80;;;;;;;8.58;83.26;101921.66;836111;23;1188;-79
2023/05/25 00:14:33;;;;;;;22.98;13.77;;;;;;;8.57;83.70;101918.19;841098;23;1089;-78
2023/05/25 00:14:53;;;;;;;22.20;13.70;;;;;;;8.53;83.29;101910.16;844066;23;1457;-79
2023/05/25 00:15:14;;;;;;;21.80;13.40;;;;;;;8.58;83.42;101919.06;848022;23;1265;-79
2023/05/25 00:15:36;;;;;;;20.23;13.20;;;;;;;8.61;83.74;101921.88;843556;23;1303;-80
2023/05/25 00:15:57;;;;;;;20.15;13.50;;;;;;;8.65;83.42;101929.03;841407;23;848;-80
2023/05/25 00:16:17;;;;;;;20.08;13.50;;;;;;;8.57;83.31;101919.88;843051;23;1519;-79
2023/05/25 00:16:39;;;;;;;22.77;13.85;;;;;;;8.61;83.43;101920.13;843555;23;1227;-79
2023/05/25 00:17:02;;;;;;;22.88;13.55;;;;;;;8.56;83.83;101915.50;843354;23;1196;-79
2023/05/25 00:17:23;;;;;;;21.85;13.63;;;;;;;8.60;83.31;101926.16;845342;23;864;-79
2023/05/25 00:17:44;;;;;;;20.80;14.00;;;;;;;8.57;83.37;101920.78;843608;23;1020;-79
2023/05/25 00:18:05;;;;;;;22.85;13.88;;;;;;;8.54;83.19;101914.53;843783;23;1942;-79
2023/05/25 00:18:26;;;;;;;23.10;14.25;;;;;;;8.56;83.54;101915.50;839017;23;1097;-79
2023/05/25 00:18:47;;;;;;;22.47;14.47;;;;;;;8.49;83.36;101920.34;839483;23;1298;-79
2023/05/25 00:19:09;;;;;;;20.92;13.98;;;;;;;8.57;83.85;101925.09;841277;23;982;-79
2023/05/25 00:19:31;;;;;;;21.30;13.43;;;;;;;8.55;83.66;101927.63;849312;23;1015;-79
2023/05/25 00:19:51;;;;;;;22.55;13.40;;;;;;;8.55;83.39;101921.53;849339;23;1149;-79
2023/05/25 00:20:13;;;;;;;22.55;13.80;;;;;;;8.48;83.43;101913.38;852205;23;1187;-79
2023/05/25 00:20:34;;;;;;;22.77;13.63;;;;;;;8.48;83.43;101912.50;856253;23;1288;-79
2023/05/25 00:20:55;;;;;;;23.23;13.75;;;;;;;8.45;83.26;101915.81;845454;23;803;-79
2023/05/25 00:21:15;;;;;;;21.40;13.05;;;;;;;8.43;83.41;101914.84;836117;23;1325;-79
2023/05/25 00:21:40;;;;;;;20.53;12.90;;;;;;;8.40;83.36;101914.66;835803;23;1126;-80
2023/05/25 00:22:03;;;;;;;19.42;12.50;;;;;;;8.52;83.22;101936.97;836182;23;1296;-79
2023/05/25 00:22:27;;;;;;;18.88;12.52;;;;;;;8.41;83.32;101921.66;837530;23;887;-79
2023/05/25 00:22:48;;;;;;;19.80;12.75;;;;;;;8.38;83.46;101913.69;835034;23;1334;-79
2023/05/25 00:23:09;;;;;;;18.23;12.73;;;;;;;8.45;83.29;101934.03;839114;23;1256;-79
2023/05/25 00:23:30;;;;;;;18.85;12.75;;;;;;;8.32;83.23;101908.13;843786;23;1228;-79
2023/05/25 00:23:50;;;;;;;18.37;12.60;;;;;;;8.34;83.65;101914.31;841036;23;1043;-79
2023/05/25 00:24:11;;;;;;;19.52;12.38;;;;;;;8.34;83.34;101920.41;841450;23;1092;-79
2023/05/25 00:24:32;;;;;;;19.90;12.63;;;;;;;8.33;83.08;101917.72;835585;23;1420;-79
2023/05/25 00:24:53;;;;;;;22.90;13.32;;;;;;;8.34;83.37;101924.72;841370;23;704;-80
2023/05/25 00:25:13;;;;;;;22.57;13.60;;;;;;;8.32;83.31;101922.03;839948;23;1072;-79
2023/05/25 00:25:34;;;;;;;22.60;13.63;;;;;;;8.28;83.37;101914.00;842514;23;1156;-79
2023/05/25 00:25:55;;;;;;;18.98;13.00;;;;;;;8.23;83.35;101904.22;845467;23;764;-80
2023/05/25 00:26:16;;;;;;;18.60;13.48;;;;;;;8.35;83.47;101929.09;839949;23;1113;-79
2023/05/25 00:26:36;;;;;;;20.57;13.40;;;;;;;8.29;83.47;101915.78;845029;23;1024;-79
2023/05/25 00:26:57;;;;;;;24.05;13.50;;;;;;;8.21;83.11;101908.44;835616;23;1191;-79
2023/05/25 00:27:18;;;;;;;23.60;13.10;;;;;;;8.26;83.46;101912.97;841358;23;1081;-79
2023/05/25 00:27:39;;;;;;;22.98;13.57;;;;;;;8.25;83.26;101919.91;843187;23;1242;-79
2023/05/25 00:28:03;;;;;;;19.45;13.63;;;;;;;8.26;82.97;101915.59;844074;23;1495;-79
2023/05/25 00:28:24;;;;;;;18.23;13.25;;;;;;;8.25;83.71;101919.00;843146;23;1605;-81
2023/05/25 00:28:44;;;;;;;18.27;12.93;;;;;;;8.27;83.46;101919.97;845132;23;1156;-79
2023/05/25 00:29:06;;;;;;;18.10;12.53;;;;;;;8.29;83.31;101927.06;841218;23;1000;-79
2023/05/25 00:29:26;;;;;;;18.20;13.00;;;;;;;8.21;83.06;101918.84;841559;23;752;-79
2023/05/25 00:29:47;;;;;;;19.40;13.50;;;;;;;8.27;83.36;101917.38;837986;23;1007;-80
2023/05/25 00:30:09;;;;;;;22.13;13.65;;;;;;;8.26;83.46;101920.78;840162;23;974;-80
2023/05/25 00:30:30;;;;;;;22.48;13.60;;;;;;;8.30;83.44;101927.97;843809;23;1310;-79
2023/05/25 00:30:53;;;;;;;22.33;13.38;;;;;;;8.26;83.47;101926.00;845540;23;767;-80
2023/05/25 00:31:14;;;;;;;23.10;13.70;;;;;;;8.23;83.36;101921.50;844137;23;1280;-80
2023/05/25 00:31:35;;;;;;;23.97;14.10;;;;;;;8.33;83.45;101935.94;839729;23;1234;-79
2023/05/25 00:31:56;;;;;;;23.48;14.25;;;;;;;8.26;83.70;101920.78;839588;23;1190;-80
2023/05/25 00:32:18;;;;;;;22.27;14.30;;;;;;;8.17;83.53;101905.59;839813;23;1184;-79
2023/05/25 00:32:40;;;;;;;23.95;14.40;;;;;;;8.24;83.54;101923.31;840970;23;1043;-82
2023/05/25 00:33:01;;;;;;;22.90;14.50;;;;;;;8.22;83.64;101915.44;839922;23;1032;-80
2023/05/25 00:33:22;;;;;;;25.00;14.30;;;;;;;8.30;83.64;101928.84;839532;23;1180;-80
2023/05/25 00:33:44;;;;;;;24.63;14.02;;;;;;;8.18;83.57;101910.84;843603;23;1146;-80
2023/05/25 00:34:05;;;;;;;24.20;14.02;;;;;;;8.15;83.79;101918.50;845385;23;1104;-81
2023/05/25 00:34:25;;;;;;;23.48;14.50;;;;;;;8.09;83.52;101919.03;853655;23;766;-80
2023/05/25 00:34:46;;;;;;;21.30;14.18;;;;;;;8.09;83.99;101918.13;845040;23;973;-80
2023/05/25 00:35:08;;;;;;;20.45;13.90;;;;;;;8.14;84.27;101932.31;851951;23;1212;-80
2023/05/25 00:35:28;;;;;;;19.90;13.35;;;;;;;8.07;84.19;101919.75;849444;23;1078;-80
2023/05/25 00:35:49;;;;;;;20.90;13.70;;;;;;;8.13;84.38;101930.53;843761;23;1436;-80
2023/05/25 00:36:10;;;;;;;25.63;14.13;;;;;;;8.07;84.03;101920.66;839029;23;1279;-80
2023/05/25 00:36:31;;;;;;;24.83;14.18;;;;;;;8.07;84.23;101925.88;837253;23;1113;-80
2023/05/25 00:36:53;;;;;;;22.60;13.30;;;;;;;8.06;84.53;101917.97;836603;23;994;-80
2023/05/25 00:37:14;;;;;;;20.38;13.35;;;;;;;8.00;84.44;101912.41;840148;23;1169;-80
2023/05/25 00:37:34;;;;;;;22.52;13.30;;;;;;;8.01;84.51;101919.41;839638;23;1180;-80
2023/05/25 00:37:55;;;;;;;23.60;13.57;;;;;;;7.97;84.09;101914.84;845403;23;1936;-80
2023/05/25 00:38:17;;;;;;;20.35;12.80;;;;;;;8.05;84.70;101931.78;844087;23;1137;-80
2023/05/25 00:38:38;;;;;;;25.45;13.98;;;;;;;7.96;84.65;101911.34;838417;23;1170;-80
2023/05/25 00:38:59;;;;;;;26.03;14.33;;;;;;;8.05;84.40;101929.19;840171;23;1360;-81
2023/05/25 00:39:20;;;;;;;27.23;14.80;;;;;;;8.02;84.30;101926.38;845594;23;1035;-81
2023/05/25 00:39:41;;;;;;;24.67;14.40;;;;;;;7.93;84.60;101917.25;843327;23;1359;-80
2023/05/25 00:40:03;;;;;;;23.90;13.77;;;;;;;7.92;84.61;101909.41;847765;23;1242;-80
2023/05/25 00:40:24;;;;;;;23.00;13.55;;;;;;;7.99;84.73;101911.50;849635;23;894;-80
2023/05/25 00:40:45;;;;;;;21.98;13.70;;;;;;;8.07;84.68;101919.75;841041;23;950;-80
2023/05/25 00:41:06;;;;;;;21.67;14.48;;;;;;;8.09;84.39;101918.13;841306;23;1009;-80
2023/05/25 00:41:27;;;;;;;23.35;15.10;;;;;;;8.18;84.43;101939.44;843079;23;1185;-80
2023/05/25 00:41:48;;;;;;;24.00;15.68;;;;;;;8.12;84.17;101927.81;839510;23;1271;-80
2023/05/25 00:42:09;;;;;;;22.25;15.45;;;;;;;8.05;83.98;101914.47;841332;23;1106;-80
2023/05/25 00:42:31;;;;;;;21.95;14.55;;;;;;;8.09;84.06;101919.03;837329;23;955;-80
2023/05/25 00:42:52;;;;;;;22.98;14.52;;;;;;;8.13;84.03;101921.81;841086;23;1142;-80
2023/05/25 00:43:13;;;;;;;23.65;14.25;;;;;;;8.06;83.81;101912.78;845411;23;1032;-80
2023/05/25 00:43:34;;;;;;;21.73;14.15;;;;;;;8.07;84.14;101930.16;839493;23;1177;-80
2023/05/25 00:43:55;;;;;;;22.08;13.80;;;;;;;8.03;84.44;101938.56;845413;23;760;-80
2023/05/25 00:44:20;;;;;;;23.50;14.10;;;;;;;7.94;84.38;101923.38;839846;23;1689;-80
2023/05/25 00:44:41;;;;;;;23.63;14.55;;;;;;;7.88;84.05;101916.13;843033;23;1164;-80
2023/05/25 00:45:02;;;;;;;22.63;14.63;;;;;;;7.95;84.59;101928.66;843821;23;1378;-81
2023/05/25 00:45:23;;;;;;;21.92;14.18;;;;;;;7.88;84.76;101917.81;844162;23;1226;-80
2023/05/25 00:45:44;;;;;;;23.20;14.20;;;;;;;7.97;84.73;101940.84;843627;23;1225;-80
2023/05/25 00:46:06;;;;;;;23.05;14.10;;;;;;;7.92;84.85;101932.78;845379;23;1070;-80
2023/05/25 00:46:27;;;;;;;23.60;14.27;;;;;;;7.82;84.71;101918.34;839485;23;1404;-80
2023/05/25 00:46:51;;;;;;;23.40;13.93;;;;;;;7.92;85.07;101932.78;844598;23;1039;-80
2023/05/25 00:47:11;;;;;;;21.85;13.75;;;;;;;7.91;84.85;101939.69;839910;23;1324;-80
2023/05/25 00:47:32;;;;;;;22.45;13.80;;;;;;;7.82;84.88;101928.75;843814;23;1153;-80
2023/05/25 00:47:53;;;;;;;21.70;13.77;;;;;;;7.78;85.15;101917.28;843460;23;1118;-80
2023/05/25 00:48:14;;;;;;;22.10;13.40;;;;;;;7.75;84.85;101916.22;840032;23;1255;-80
2023/05/25 00:48:38;;;;;;;20.10;12.80;;;;;;;7.77;84.85;101919.78;841003;23;1127;-80
2023/05/25 00:48:59;;;;;;;19.85;12.80;;;;;;;7.83;84.85;101927.94;840051;23;1237;-80
2023/05/25 00:49:24;;;;;;;20.35;12.75;;;;;;;7.84;84.71;101934.06;839364;23;1345;-80
2023/05/25 00:49:45;;;;;;;20.50;13.38;;;;;;;7.69;84.98;101906.38;843609;23;1449;-80
2023/05/25 00:50:08;;;;;;;21.10;13.50;;;;;;;7.72;84.85;101916.00;839923;23;1191;-80
2023/05/25 00:50:41;;;;;;;23.10;13.60;;;;;;;7.78;85.02;101926.78;839871;23;1383;-80
2023/05/25 00:51:02;;;;;;;22.52;13.23;;;;;;;7.76;85.07;101915.41;843928;23;1399;-80
2023/05/25 00:51:25;;;;;;;20.73;12.95;;;;;;;7.87;84.62;101932.50;843989;23;1469;-80
2023/05/25 00:51:46;;;;;;;19.25;12.70;;;;;;;7.84;84.57;101929.72;842708;23;1639;-81
2023/05/25 00:52:11;;;;;;;20.70;12.80;;;;;;;7.90;84.64;101940.50;840010;23;1343;-80
2023/05/25 00:52:32;;;;;;;22.58;13.30;;;;;;;7.81;84.54;101921.78;836956;23;1051;-80
2023/05/25 00:52:53;;;;;;;21.85;13.60;;;;;;;7.78;84.39;101913.78;835964;23;1111;-79
2023/05/25 00:53:13;;;;;;;21.25;13.98;;;;;;;7.87;84.63;101932.50;835881;23;1281;-80
2023/05/25 00:53:36;;;;;;;21.83;13.82;;;;;;;7.86;84.41;101932.44;839529;23;1236;-79
2023/05/25 00:53:56;;;;;;;23.73;13.88;;;;;;;7.89;84.62;101935.19;841285;23;832;-80
2023/05/25 00:54:18;;;;;;;23.02;14.10;;;;;;;7.90;84.65;101936.97;845372;23;960;-80
2023/05/25 00:54:39;;;;;;;22.10;14.00;;;;;;;7.81;84.60;101916.56;845132;23;1031;-80
2023/05/25 00:55:01;;;;;;;21.87;14.27;;;;;;;7.81;84.21;101921.78;840052;23;1147;-80
2023/05/25 00:55:24;;;;;;;20.90;13.80;;;;;;;7.84;84.34;101921.94;840036;23;1282;-80
2023/05/25 00:56:01;;;;;;;21.30;13.52;;;;;;;7.78;84.29;101913.78;843652;23;1191;-80
2023/05/25 00:56:27;;;;;;;23.27;14.20;;;;;;;7.83;84.47;101920.16;845483;23;870;-80
2023/05/25 00:56:52;;;;;;;24.35;14.10;;;;;;;7.88;84.60;101929.13;843159;23;1347;-80
2023/05/25 00:57:15;;;;;;;24.98;14.40;;;;;;;7.76;84.25;101907.59;851295;23;1250;-80
2023/05/25 00:57:40;;;;;;;24.27;14.10;;;;;;;7.77;84.60;101914.59;849137;23;988;-80
2023/05/25 00:58:03;;;;;;;24.65;13.95;;;;;;;7.81;84.30;101922.66;836498;23;1939;-80
2023/05/25 00:58:26;;;;;;;22.50;14.00;;;;;;;7.84;84.08;101921.06;843647;23;1240;-80
2023/05/25 00:58:50;;;;;;;21.33;14.13;;;;;;;7.79;84.82;101918.16;844977;23;966;-80
2023/05/25 00:59:16;;;;;;;23.08;14.63;;;;;;;7.80;84.48;101920.84;841184;23;1061;-80
2023/05/25 00:59:47;;;;;;;23.77;13.98;;;;;;;7.81;84.39;101921.78;838767;23;1044;-80
2023/05/25 01:00:10;;;;;;;22.80;13.63;;;;;;;7.79;84.65;101920.75;839760;23;1287;-81
2023/05/25 01:00:32;;;;;;;22.45;13.50;;;;;;;7.75;84.41;101916.22;835780;23;1222;-80
2023/05/25 01:00:56;;;;;;;20.50;14.13;;;;;;;7.83;84.66;101930.53;839895;23;837;-80
2023/05/25 01:01:18;;;;;;;21.20;14.50;;;;;;;7.76;84.67;101918.00;839813;23;1235;-80
2023/05/25 01:01:39;;;;;;;21.95;14.50;;;;;;;7.75;84.78;101916.22;840976;23;995;-81
2023/05/25 01:02:07;;;;;;;22.30;14.27;;;;;;;7.81;84.63;101921.78;841374;23;788;-80
2023/05/25 01:02:28;;;;;;;23.92;14.80;;;;;;;7.76;84.86;101915.41;839208;23;1156;-80
2023/05/25 01:02:51;;;;;;;24.90;15.25;;;;;;;7.82;84.86;101923.56;849184;23;1005;-81
2023/05/25 01:03:20;;;;;;;23.73;14.95;;;;;;;7.76;84.65;101907.59;839575;23;1314;-81
2023/05/25 01:03:47;;;;;;;18.70;13.85;;;;;;;7.80;84.56;101914.78;839522;23;1178;-81
2023/05/25 01:04:14;;;;;;;19.42;14.20;;;;;;;7.76;84.37;101910.19;839321;23;1223;-80
2023/05/25 01:04:44;;;;;;;21.05;14.02;;;;;;;7.86;84.67;101924.63;839367;23;1295;-80
2023/05/25 01:05:07;;;;;;;21.42;13.85;;;;;;;7.81;84.94;101921.78;839959;23;1108;-80
2023/05/25 01:05:31;;;;;;;22.63;14.20;;;;;;;7.75;84.34;101916.22;839120;23;1273;-80
2023/05/25 01:05:54;;;;;;;21.88;14.00;;;;;;;7.79;84.66;101918.16;845323;23;1065;-80
2023/05/25 01:06:17;;;;;;;23.00;14.50;;;;;;;7.72;84.49;101911.72;839965;23;1413;-81
2023/05/25 01:06:42;;;;;;;19.90;13.90;;;;;;;7.79;84.34;101923.34;840868;23;1060;-80
2023/05/25 01:07:05;;;;;;;20.70;14.10;;;;;;;7.69;84.85;101906.38;835299;23;1283;-81
2023/05/25 01:07:26;;;;;;;19.30;13.50;;;;;;;7.69;84.33;101908.97;834951;23;1314;-81
2023/05/25 01:07:49;;;;;;;20.85;13.43;;;;;;;7.67;84.46;101906.25;845016;23;1007;-81
2023/05/25 01:08:12;;;;;;;20.15;13.57;;;;;;;7.73;84.51;101915.22;845354;23;1072;-80
2023/05/25 01:08:33;;;;;;;22.48;13.70;;;;;;;7.70;85.02;101917.63;849106;23;1016;-80
2023/05/25 01:08:59;;;;;;;22.58;13.80;;;;;;;7.66;84.14;101912.28;845334;23;800;-81
2023/05/25 01:09:22;;;;;;;21.38;13.35;;;;;;;7.71;84.72;101919.41;843771;23;1494;-81
2023/05/25 01:09:47;;;;;;;19.42;13.40;;;;;;;7.71;84.51;101920.34;845072;23;949;-81
2023/05/25 01:10:10;;;;;;;21.48;13.40;;;;;;;7.68;84.71;101918.44;839845;23;1213;-81
2023/05/25 01:10:32;;;;;;;21.17;13.70;;;;;;;7.66;84.95;101911.34;839729;23;1247;-81
2023/05/25 01:10:56;;;;;;;20.02;13.70;;;;;;;7.67;84.77;101920.94;839806;23;1413;-81
2023/05/25 01:11:22;;;;;;;19.73;13.52;;;;;;;7.57;84.49;101901.34;839890;23;1187;-81
2023/05/25 01:11:47;;;;;;;19.60;13.13;;;;;;;7.66;84.52;101925.25;841128;23;937;-81
2023/05/25 01:12:09;;;;;;;18.63;13.05;;;;;;;7.56;84.17;101904.75;844123;23;1141;-81
2023/05/25 01:12:35;;;;;;;18.38;12.73;;;;;;;7.56;84.15;101912.56;843809;23;1286;-81
2023/05/25 01:12:58;;;;;;;18.67;12.82;;;;;;;7.54;84.10;101906.34;839957;23;1311;-80
2023/05/25 01:13:20;;;;;;;19.55;13.20;;;;;;;7.61;84.40;101925.81;848073;23;1884;-81
2023/05/25 01:13:41;;;;;;;21.02;13.55;;;;;;;7.52;85.05;101907.97;849235;23;971;-81
2023/05/25 01:14:02;;;;;;;21.27;13.50;;;;;;;7.60;84.69;101922.28;843995;23;1259;-81
2023/05/25 01:14:24;;;;;;;21.80;13.88;;;;;;;7.48;84.89;101908.56;835840;23;1078;-81
2023/05/25 01:14:47;;;;;;;20.27;14.10;;;;;;;7.50;84.47;101912.19;839639;23;1413;-81
2023/05/25 01:15:08;;;;;;;21.98;14.35;;;;;;;7.48;84.43;101905.97;841330;23;1088;-80
2023/05/25 01:15:30;;;;;;;21.77;14.02;;;;;;;7.60;84.87;101932.69;835797;23;1360;-81
2023/05/25 01:15:51;;;;;;;23.83;14.27;;;;;;;7.52;84.18;101923.53;839563;23;1396;-81
2023/05/25 01:16:14;;;;;;;23.65;13.90;;;;;;;7.56;84.79;101930.72;839471;23;1253;-80
2023/05/25 01:16:36;;;;;;;22.40;13.90;;;;;;;7.47;84.71;101909.38;842104;23;1224;-80
2023/05/25 01:16:58;;;;;;;19.08;13.30;;;;;;;7.43;84.41;101902.22;838375;23;1188;-81
2023/05/25 01:17:19;;;;;;;18.42;13.35;;;;;;;7.45;84.92;101913.59;843861;23;1353;-79
2023/05/25 01:17:42;;;;;;;18.83;13.23;;;;;;;7.49;84.36;101924.25;838672;23;963;-79
2023/05/25 01:18:04;;;;;;;23.20;13.90;;;;;;;7.47;84.37;101919.78;843704;23;1908;-80
2023/05/25 01:18:25;;;;;;;22.60;14.05;;;;;;;7.47;84.73;101917.19;848037;23;1279;-80
2023/05/25 01:18:46;;;;;;;22.13;13.77;;;;;;;7.44;84.46;101915.31;849055;23;990;-80
2023/05/25 01:19:09;;;;;;;19.92;13.57;;;;;;;7.49;84.61;101928.56;852042;23;1124;-80
2023/05/25 01:19:32;;;;;;;22.70;14.13;;;;;;;7.43;84.84;101916.09;849192;23;968;-80
2023/05/25 01:19:57;;;;;;;19.40;13.80;;;;;;;7.41;84.34;101922.91;846915;23;1323;-80
2023/05/25 01:20:18;;;;;;;18.13;13.75;;;;;;;7.42;84.85;101922.09;843925;23;1304;-81
2023/05/25 01:21:11;;;;;;;17.38;13.05;;;;;;;7.50;84.95;101926.03;845068;23;970;-81
2023/05/25 01:21:36;;;;;;;23.58;13.35;;;;;;;7.49;84.37;101932.06;839625;23;1268;-80
2023/05/25 01:22:04;;;;;;;24.33;13.10;;;;;;;7.49;84.80;101932.06;835630;23;1406;-80
2023/05/25 01:22:31;;;;;;;21.42;13.20;;;;;;;7.37;84.57;101911.44;839012;23;1003;-80
2023/05/25 01:23:11;;;;;;;20.88;13.30;;;;;;;7.40;84.82;101914.25;845261;23;1068;-81
2023/05/25 01:23:36;;;;;;;22.88;13.95;;;;;;;7.40;84.74;101921.13;839921;23;1220;-80
2023/05/25 01:24:12;;;;;;;23.40;14.30;;;;;;;7.51;84.71;101934.75;837416;23;818;-81
2023/05/25 01:24:41;;;;;;;20.67;13.77;;;;;;;7.43;84.45;101920.41;839455;23;1447;-81
2023/05/25 01:25:24;;;;;;;23.13;13.70;;;;;;;7.39;84.57;101919.34;839844;23;2135;-81
2023/05/25 01:25:50;;;;;;;23.50;13.95;;;;;;;7.49;84.59;101944.16;834900;23;1313;-81
2023/05/25 01:26:15;;;;;;;21.00;13.60;;;;;;;7.37;84.77;101914.03;837228;23;947;-80
2023/05/25 01:26:53;;;;;;;20.52;13.40;;;;;;;7.36;84.92;101914.84;840924;23;1121;-81
2023/05/25 01:27:23;;;;;;;20.50;13.70;;;;;;;7.39;84.64;101915.00;843875;23;1290;-80
2023/05/25 01:27:49;;;;;;;19.08;13.35;;;;;;;7.37;84.73;101913.16;845015;23;988;-81
2023/05/25 01:28:17;;;;;;;20.10;13.55;;;;;;;7.38;84.95;101918.41;845331;23;972;-80
2023/05/25 01:28:41;;;;;;;20.35;13.63;;;;;;;7.40;84.95;101914.25;841003;23;1030;-80
2023/05/25 01:29:03;;;;;;;20.23;13.48;;;;;;;7.43;84.96;101925.59;843840;23;1121;-81
2023/05/25 01:29:26;;;;;;;21.17;13.68;;;;;;;7.39;85.32;101920.22;841446;23;748;-80
2023/05/25 01:29:48;;;;;;;20.25;13.48;;;;;;;7.47;85.15;101930.16;837037;23;1072;-81
2023/05/25 01:30:13;;;;;;;21.50;13.93;;;;;;;7.49;84.88;101938.97;843868;23;1234;-80
2023/05/25 01:30:36;;;;;;;23.13;14.38;;;;;;;7.41;84.58;101920.31;847631;23;1283;-81
2023/05/25 01:30:57;;;;;;;23.58;14.35;;;;;;;7.43;85.20;101913.50;840068;23;1105;-81
2023/05/25 01:31:22;;;;;;;25.27;14.75;;;;;;;7.42;84.62;101913.44;839877;23;1607;-80
2023/05/25 01:31:46;;;;;;;23.70;14.70;;;;;;;7.47;85.09;101923.28;842382;23;1283;-80
2023/05/25 01:32:07;;;;;;;23.90;14.25;;;;;;;7.42;84.84;101916.03;845376;23;992;-81
2023/05/25 01:32:31;;;;;;;21.88;13.40;;;;;;;7.43;84.92;101917.81;849558;23;945;-82
2023/05/25 01:32:53;;;;;;;22.15;13.52;;;;;;;7.42;85.14;101910.84;843657;23;1011;-80
2023/05/25 01:33:20;;;;;;;22.10;14.05;;;;;;;7.50;84.79;101928.66;835881;23;1126;-81
2023/05/25 01:33:43;;;;;;;22.52;14.40;;;;;;;7.50;84.63;101935.56;840995;23;1034;-81
2023/05/25 01:34:04;;;;;;;22.55;14.70;;;;;;;7.43;84.55;101916.09;841274;23;1111;-81
2023/05/25 01:34:27;;;;;;;22.23;14.30;;;;;;;7.41;84.92;101904.72;841167;23;850;-81
2023/05/25 01:34:49;;;;;;;22.67;14.02;;;;;;;7.42;84.32;101911.72;839698;23;1319;-81
2023/05/25 01:35:10;;;;;;;20.80;13.48;;;;;;;7.48;85.08;101921.56;838774;23;1170;-80
2023/05/25 01:35:32;;;;;;;19.52;13.52;;;;;;;7.40;84.39;101914.25;839801;23;1058;-82
2023/05/25 01:35:53;;;;;;;21.48;13.75;;;;;;;7.52;84.92;101926.16;841252;23;794;-81
2023/05/25 01:36:14;;;;;;;20.52;14.20;;;;;;;7.42;84.85;101911.72;835932;23;1272;-81
2023/05/25 01:36:36;;;;;;;20.35;14.50;;;;;;;7.45;84.80;101922.31;838233;23;1358;-81
2023/05/25 01:36:59;;;;;;;18.85;13.98;;;;;;;7.48;85.07;101927.66;840808;23;827;-81
2023/05/25 01:37:23;;;;;;;17.73;13.60;;;;;;;7.45;84.91;101916.19;843897;23;1336;-81
2023/05/25 01:37:45;;;;;;;21.23;13.95;;;;;;;7.45;85.04;101911.91;843664;23;1234;-80
2023/05/25 01:38:08;;;;;;;23.50;14.25;;;;;;;7.48;84.60;101919.88;841276;23;1901;-80
2023/05/25 01:38:29;;;;;;;25.83;14.38;;;;;;;7.48;84.91;101916.38;841399;23;1181;-81
2023/05/25 01:38:50;;;;;;;21.60;13.90;;;;;;;7.50;84.61;101919.97;843620;23;1175;-81
2023/05/25 01:39:11;;;;;;;20.95;13.60;;;;;;;7.50;84.76;101926.03;834948;23;1431;-81
2023/05/25 01:39:32;;;;;;;21.20;13.48;;;;;;;7.52;84.87;101928.75;840857;23;1053;-81
2023/05/25 01:39:55;;;;;;;22.48;13.25;;;;;;;7.50;84.72;101919.97;839908;23;1267;-80
2023/05/25 01:40:15;;;;;;;21.73;13.20;;;;;;;7.46;84.70;101917.97;840078;23;1014;-80
2023/05/25 01:40:36;;;;;;;21.13;13.65;;;;;;;7.45;84.94;101916.19;843667;23;1336;-80
2023/05/25 01:40:58;;;;;;;19.77;14.18;;;;;;;7.37;84.78;101914.03;845563;23;822;-80
2023/05/25 01:41:20;;;;;;;19.63;14.30;;;;;;;7.46;84.70;101925.78;839838;23;1094;-82
2023/05/25 01:41:41;;;;;;;19.55;13.93;;;;;;;7.36;84.51;101912.25;845102;23;938;-81
2023/05/25 01:42:02;;;;;;;20.40;13.85;;;;;;;7.37;84.63;101914.03;839779;23;1210;-82
2023/05/25 01:42:23;;;;;;;20.75;13.70;;;;;;;7.33;84.89;101916.34;839950;23;1241;-81
2023/05/25 01:42:44;;;;;;;22.10;13.95;;;;;;;7.43;84.55;101938.59;839109;23;1376;-81
2023/05/25 01:43:05;;;;;;;20.95;13.85;;;;;;;7.35;84.51;101922.53;839882;23;1270;-81
2023/05/25 01:43:27;;;;;;;20.65;13.38;;;;;;;7.36;84.50;101930.44;843440;23;1438;-81
2023/05/25 01:43:48;;;;;;;22.77;13.67;;;;;;;7.36;84.79;101933.03;839642;23;1239;-81
2023/05/25 01:44:09;;;;;;;23.15;13.50;;;;;;;7.32;84.90;101919.75;842727;23;1138;-82
2023/05/25 01:44:29;;;;;;;23.13;14.00;;;;;;;7.39;84.69;101935.78;845122;23;896;-81
2023/05/25 01:44:50;;;;;;;18.00;13.68;;;;;;;7.34;84.57;101923.34;845033;23;974;-81
2023/05/25 01:45:13;;;;;;;19.80;13.60;;;;;;;7.28;84.41;101921.28;839397;23;1248;-81
2023/05/25 01:45:35;;;;;;;19.40;13.68;;;;;;;7.39;84.54;101943.59;840880;23;1021;-80
2023/05/25 01:46:05;;;;;;;19.98;13.70;;;;;;;7.30;84.49;101927.44;839863;23;1337;-80
2023/05/25 01:46:49;;;;;;;20.33;13.75;;;;;;;7.32;84.30;101928.47;837338;23;822;-80
2023/05/25 01:47:26;;;;;;;19.52;13.20;;;;;;;7.39;84.40;101943.59;835351;23;1107;-81